Time;durP1;ratioP1;P1;durP2;ratioP2;P2;SDS_P1;SDS_P2;PMS_P1;PMS_P2;Temp;Humidity;BMP_temperature;BMP_pressure;BME280_temperature;BME280_humidity;BME280_pressure;Samples;Min_cycle;Max_cycle;Signal;HPM_P1;HPM_P2
2022/01/22 00:00:25;;;;;;;53.03;49.40;;;6.90;99.90;;;;;;5042135;28;20222;-81
2022/01/22 00:02:51;;;;;;;53.83;50.20;;;6.90;99.90;;;;;;5026496;28;20292;-80
2022/01/22 00:05:19;;;;;;;53.80;49.30;;;6.90;99.90;;;;;;5043395;28;20193;-78
2022/01/22 00:07:45;;;;;;;55.27;51.63;;;6.90;99.90;;;;;;5060333;28;20251;-79
2022/01/22 00:10:14;;;;;;;53.37;49.77;;;6.90;99.90;;;;;;5041761;28;20198;-80
2022/01/22 00:15:18;;;;;;;56.77;53.07;;;6.90;99.90;;;;;;5061154;28;20657;-80
2022/01/22 00:17:45;;;;;;;56.67;52.37;;;7.00;99.90;;;;;;5042558;28;20199;-80
2022/01/22 00:20:13;;;;;;;57.10;52.57;;;7.00;99.90;;;;;;5028891;28;20186;-80
2022/01/22 00:22:39;;;;;;;55.83;51.93;;;7.00;99.90;;;;;;5038878;28;20252;-79
2022/01/22 00:25:09;;;;;;;57.53;53.73;;;7.00;99.90;;;;;;5039111;28;20256;-79
2022/01/22 00:27:37;;;;;;;55.93;52.17;;;7.00;99.90;;;;;;5013741;28;20677;-80
2022/01/22 00:30:05;;;;;;;58.03;53.10;;;7.00;99.90;;;;;;5045946;28;20680;-79
2022/01/22 00:32:31;;;;;;;55.40;51.60;;;6.90;99.90;;;;;;5037682;28;20706;-80
2022/01/22 00:34:56;;;;;;;55.50;52.30;;;6.90;99.90;;;;;;5038054;28;20203;-80
2022/01/22 00:37:22;;;;;;;58.37;54.00;;;7.00;99.90;;;;;;5034092;28;20598;-80
2022/01/22 00:39:48;;;;;;;57.77;53.57;;;6.90;99.90;;;;;;5022901;28;20664;-79
2022/01/22 00:42:15;;;;;;;56.73;52.80;;;6.90;99.90;;;;;;5037553;28;20310;-80
2022/01/22 00:44:42;;;;;;;57.50;53.03;;;7.00;99.90;;;;;;5006364;28;20187;-80
2022/01/22 00:47:08;;;;;;;56.30;52.60;;;7.00;99.90;;;;;;5053131;28;20198;-80
2022/01/22 00:49:36;;;;;;;60.60;56.37;;;7.00;99.90;;;;;;5034822;28;20550;-80
2022/01/22 00:52:04;;;;;;;60.37;56.07;;;7.00;99.90;;;;;;5037531;28;20190;-79
2022/01/22 00:54:30;;;;;;;61.13;56.70;;;7.00;99.90;;;;;;5038940;28;20252;-80
2022/01/22 00:56:56;;;;;;;58.80;54.90;;;7.00;99.90;;;;;;5037109;28;20208;-80
2022/01/22 00:59:21;;;;;;;59.90;55.57;;;7.00;99.90;;;;;;5021783;28;20210;-80
2022/01/22 01:01:47;;;;;;;59.00;55.30;;;7.00;99.90;;;;;;5035103;28;20213;-79
2022/01/22 01:04:13;;;;;;;61.20;56.90;;;7.10;99.90;;;;;;5009156;28;20190;-79
2022/01/22 01:06:39;;;;;;;61.70;57.77;;;7.00;99.90;;;;;;5038601;28;20190;-80
2022/01/22 01:09:08;;;;;;;61.17;57.27;;;7.00;99.90;;;;;;5039086;28;20644;-80
2022/01/22 01:11:39;;;;;;;60.83;57.07;;;7.10;99.90;;;;;;5037090;28;20194;-78
2022/01/22 01:14:08;;;;;;;62.37;58.13;;;7.10;99.90;;;;;;5029549;28;20194;-80
2022/01/22 01:32:57;;;;;;;66.17;61.87;;;7.20;99.90;;;;;;5043726;28;20690;-78
2022/01/22 01:35:26;;;;;;;66.37;61.87;;;7.20;99.90;;;;;;5057830;28;20238;-79
2022/01/22 01:37:54;;;;;;;64.73;60.57;;;7.20;99.90;;;;;;5039991;28;20185;-80
2022/01/22 01:40:22;;;;;;;66.80;62.37;;;7.20;99.90;;;;;;5041124;28;20233;-79
2022/01/22 01:43:01;;;;;;;64.47;60.50;;;7.20;99.90;;;;;;5032688;28;20299;-80
2022/01/22 01:45:27;;;;;;;66.77;62.37;;;7.30;99.90;;;;;;5043555;28;20361;-80
2022/01/22 01:48:01;;;;;;;66.43;61.83;;;7.30;99.90;;;;;;5009581;28;20181;-79
2022/01/22 01:50:27;;;;;;;66.60;62.27;;;7.30;99.90;;;;;;5040898;28;20185;-79
2022/01/22 01:53:25;;;;;;;68.57;63.77;;;7.30;99.90;;;;;;5024204;28;20187;-79
2022/01/22 01:56:05;;;;;;;67.97;63.07;;;7.30;99.90;;;;;;5034580;28;20291;-80
2022/01/22 01:58:31;;;;;;;68.90;64.60;;;7.30;99.90;;;;;;5043471;28;20206;-79
2022/01/22 02:01:00;;;;;;;69.43;64.93;;;7.30;99.90;;;;;;5057014;28;20216;-76
2022/01/22 02:03:26;;;;;;;66.33;62.23;;;7.30;99.90;;;;;;5043784;28;20209;-78
2022/01/22 02:05:52;;;;;;;66.77;62.47;;;7.30;99.90;;;;;;5044519;28;20190;-78
2022/01/22 02:08:19;;;;;;;67.20;62.93;;;7.30;99.90;;;;;;5043827;28;20177;-77
2022/01/22 02:10:54;;;;;;;67.43;63.03;;;7.30;99.90;;;;;;5060493;28;20212;-79
2022/01/22 02:24:37;;;;;;;70.60;65.53;;;7.30;99.90;;;;;;5044891;28;20209;-78
2022/01/22 02:27:04;;;;;;;68.63;64.50;;;7.40;99.90;;;;;;5013119;28;20217;-78
2022/01/22 02:29:29;;;;;;;67.83;62.77;;;7.40;99.90;;;;;;5040154;28;20577;-77
2022/01/22 02:32:21;;;;;;;69.17;64.87;;;7.40;99.90;;;;;;5040523;28;20202;-78
2022/01/22 02:34:55;;;;;;;67.97;63.40;;;7.40;99.90;;;;;;5031496;28;20206;-78
2022/01/22 02:37:23;;;;;;;67.47;63.20;;;7.40;99.90;;;;;;5041030;28;20257;-77
2022/01/22 02:40:10;;;;;;;66.93;62.47;;;7.40;99.90;;;;;;5042179;28;20195;-78
2022/01/22 02:42:35;;;;;;;70.33;65.80;;;7.40;99.90;;;;;;5049207;28;20223;-78
2022/01/22 02:45:08;;;;;;;66.23;61.77;;;7.40;99.90;;;;;;5047632;28;20208;-78
2022/01/22 02:47:33;;;;;;;65.53;61.03;;;7.40;99.90;;;;;;5030668;28;20198;-77
2022/01/22 02:49:59;;;;;;;70.27;65.53;;;7.40;99.90;;;;;;5041339;28;20198;-77
2022/01/22 02:52:25;;;;;;;68.43;64.33;;;7.40;99.90;;;;;;5011248;28;20206;-78
2022/01/22 02:54:52;;;;;;;70.63;66.07;;;7.40;99.90;;;;;;5043132;28;20208;-78
2022/01/22 02:57:17;;;;;;;70.17;65.70;;;7.40;99.90;;;;;;5033755;28;20218;-78
2022/01/22 02:59:43;;;;;;;69.50;65.07;;;7.40;99.90;;;;;;5033500;28;20216;-77
2022/01/22 03:02:13;;;;;;;68.83;64.40;;;7.40;99.90;;;;;;5044832;28;20233;-78
2022/01/22 03:04:39;;;;;;;69.93;65.63;;;7.50;99.90;;;;;;5027463;28;20217;-78
2022/01/22 03:07:06;;;;;;;68.63;64.00;;;7.50;99.90;;;;;;5046194;28;20246;-77
2022/01/22 03:09:39;;;;;;;67.53;63.37;;;7.50;99.90;;;;;;5043090;28;20190;-78
2022/01/22 03:22:25;;;;;;;64.67;60.97;;;7.40;99.90;;;;;;5045079;28;20325;-79
2022/01/22 03:27:35;;;;;;;63.63;59.27;;;7.50;99.90;;;;;;5047831;28;20647;-78
2022/01/22 03:30:02;;;;;;;65.67;61.67;;;7.50;99.90;;;;;;5033877;28;20206;-78
2022/01/22 03:32:35;;;;;;;63.43;59.60;;;7.50;99.90;;;;;;5064550;28;20188;-77
2022/01/22 03:35:11;;;;;;;64.03;59.90;;;7.50;99.90;;;;;;5037103;28;20701;-78
2022/01/22 03:37:38;;;;;;;64.73;60.83;;;7.50;99.90;;;;;;5060106;28;20278;-78
2022/01/22 03:40:04;;;;;;;63.23;59.17;;;7.50;99.90;;;;;;5045687;28;20742;-78
2022/01/22 03:42:30;;;;;;;63.63;59.20;;;7.50;99.90;;;;;;5046754;28;20202;-76
2022/01/22 03:44:56;;;;;;;65.23;61.07;;;7.50;99.90;;;;;;5027210;28;20197;-80
2022/01/22 03:47:21;;;;;;;65.33;61.37;;;7.50;99.90;;;;;;5011378;28;20945;-80
2022/01/22 03:49:47;;;;;;;62.77;58.47;;;7.50;99.90;;;;;;5041331;28;20196;-80
2022/01/22 03:52:13;;;;;;;64.53;60.37;;;7.50;99.90;;;;;;5043477;28;20228;-78
2022/01/22 03:54:39;;;;;;;65.60;61.67;;;7.50;99.90;;;;;;5040884;28;20282;-80
2022/01/22 03:57:07;;;;;;;62.17;58.77;;;7.50;99.90;;;;;;5027375;28;20413;-78
2022/01/22 03:59:33;;;;;;;61.50;57.03;;;7.50;99.90;;;;;;5050727;28;20178;-78
2022/01/22 04:02:19;;;;;;;59.87;56.13;;;7.50;99.90;;;;;;5029922;28;20210;-76
2022/01/22 04:04:52;;;;;;;61.77;58.37;;;7.60;99.90;;;;;;5047430;28;20190;-76
2022/01/22 04:07:45;;;;;;;62.97;58.63;;;7.50;99.90;;;;;;5051263;28;20733;-77
2022/01/22 04:10:06;;;;;;;63.83;60.43;;;7.60;99.90;;;;;;5061972;28;20704;-78
2022/01/22 04:15:09;;;;;;;63.63;59.70;;;7.60;99.90;;;;;;5061628;28;20213;-77
2022/01/22 04:25:34;;;;;;;67.40;62.83;;;7.60;99.90;;;;;;5040865;28;20205;-77
2022/01/22 04:28:02;;;;;;;65.70;61.67;;;7.50;99.90;;;;;;5042560;28;20219;-77
2022/01/22 04:30:28;;;;;;;63.57;59.30;;;7.50;99.90;;;;;;5039510;28;20221;-77
2022/01/22 04:32:54;;;;;;;64.77;60.97;;;7.60;99.90;;;;;;5009401;28;20285;-77
2022/01/22 04:35:22;;;;;;;68.40;64.00;;;7.60;99.90;;;;;;5041079;28;20249;-78
2022/01/22 04:37:49;;;;;;;68.40;64.07;;;7.60;99.90;;;;;;5057513;28;20257;-78
2022/01/22 04:40:17;;;;;;;69.17;64.77;;;7.60;99.90;;;;;;5059767;28;20248;-77
2022/01/22 04:42:43;;;;;;;68.90;64.60;;;7.60;99.90;;;;;;5041995;28;20241;-78
2022/01/22 04:55:35;;;;;;;70.73;66.27;;;7.70;99.90;;;;;;5034799;28;20224;-78
2022/01/22 04:58:03;;;;;;;69.77;65.87;;;7.60;99.90;;;;;;5045572;28;20323;-78
2022/01/22 05:00:34;;;;;;;71.03;66.23;;;7.60;99.90;;;;;;5044115;28;21237;-78
2022/01/22 05:03:04;;;;;;;68.13;64.13;;;7.60;99.90;;;;;;5055905;28;20233;-77
2022/01/22 05:05:31;;;;;;;67.87;63.93;;;7.70;99.90;;;;;;5031480;28;20195;-78
2022/01/22 05:07:57;;;;;;;65.23;61.30;;;7.60;99.90;;;;;;5039319;28;20189;-78
2022/01/22 05:10:24;;;;;;;64.77;60.37;;;7.60;99.90;;;;;;5056956;28;20194;-77
2022/01/22 05:12:51;;;;;;;62.80;59.10;;;7.60;99.90;;;;;;5039011;28;20198;-77
2022/01/22 05:15:17;;;;;;;62.93;59.23;;;7.60;99.90;;;;;;5045664;28;20205;-78
2022/01/22 05:17:45;;;;;;;61.63;57.93;;;7.70;99.90;;;;;;5021903;28;20191;-78
2022/01/22 05:20:27;;;;;;;58.90;55.50;;;7.70;99.90;;;;;;5040427;28;20186;-77
2022/01/22 05:23:11;;;;;;;58.87;55.10;;;7.70;99.90;;;;;;5043108;28;20226;-76
2022/01/22 05:25:45;;;;;;;58.27;55.07;;;7.70;99.90;;;;;;5028315;28;20236;-78
2022/01/22 05:31:08;;;;;;;55.37;52.10;;;7.70;99.90;;;;;;5041453;28;20217;-78
2022/01/22 05:39:10;;;;;;;55.53;51.80;;;7.70;99.90;;;;;;5042025;28;20193;-78
2022/01/22 05:41:39;;;;;;;53.83;50.40;;;7.80;99.90;;;;;;5058503;28;20265;-78
2022/01/22 05:44:05;;;;;;;52.47;49.47;;;7.70;99.90;;;;;;5056427;28;20187;-78
2022/01/22 05:46:30;;;;;;;53.23;50.17;;;7.80;99.90;;;;;;5011267;28;20190;-77
2022/01/22 05:48:56;;;;;;;52.03;48.73;;;7.80;99.90;;;;;;5040371;28;20256;-78
2022/01/22 05:51:22;;;;;;;52.73;49.73;;;7.70;99.90;;;;;;5040199;28;20194;-78
2022/01/22 05:54:14;;;;;;;52.27;49.40;;;7.70;99.90;;;;;;5026054;28;20244;-78
2022/01/22 05:59:37;;;;;;;52.47;49.43;;;7.80;99.90;;;;;;5041321;28;20213;-78
2022/01/22 06:02:07;;;;;;;53.13;49.73;;;7.70;99.90;;;;;;5030835;28;20202;-78
2022/01/22 06:04:33;;;;;;;54.13;50.67;;;7.80;99.90;;;;;;5038839;28;20191;-78
2022/01/22 06:06:59;;;;;;;51.83;48.93;;;7.70;99.90;;;;;;5038119;28;20187;-78
2022/01/22 06:09:26;;;;;;;53.03;50.03;;;7.80;99.90;;;;;;5045786;28;20194;-77
2022/01/22 06:12:44;;;;;;;56.17;52.17;;;7.70;99.90;;;;;;5021582;28;20202;-78
2022/01/22 06:14:38;;;;;;;54.37;50.97;;;7.70;99.90;;;;;;5033085;28;20621;-78
2022/01/22 06:17:04;;;;;;;53.70;50.37;;;7.70;99.90;;;;;;5040281;28;20191;-77
2022/01/22 06:19:29;;;;;;;56.90;53.33;;;7.80;99.90;;;;;;5022110;28;20195;-77
2022/01/22 06:21:55;;;;;;;55.93;52.43;;;7.80;99.90;;;;;;5044568;28;20241;-77
2022/01/22 06:24:22;;;;;;;57.83;53.77;;;7.70;99.90;;;;;;5031560;28;20256;-77
2022/01/22 06:26:48;;;;;;;57.20;53.57;;;7.70;99.90;;;;;;5041744;28;20197;-78
2022/01/22 06:29:14;;;;;;;59.77;55.87;;;7.70;99.90;;;;;;5030405;28;20211;-77
2022/01/22 06:31:40;;;;;;;59.53;54.50;;;7.70;99.90;;;;;;5044757;28;20181;-77
2022/01/22 06:34:06;;;;;;;59.57;55.93;;;7.80;99.90;;;;;;5048962;28;20204;-78
2022/01/22 06:36:33;;;;;;;62.07;57.53;;;7.80;99.90;;;;;;5040138;28;20258;-78
2022/01/22 06:39:11;;;;;;;61.93;58.00;;;7.70;99.90;;;;;;5033746;28;20256;-79
2022/01/22 06:41:44;;;;;;;62.40;58.60;;;7.70;99.90;;;;;;5057654;28;20713;-78
2022/01/22 06:44:12;;;;;;;61.17;57.07;;;7.80;99.90;;;;;;5040809;28;20201;-78
2022/01/22 06:46:37;;;;;;;63.00;58.27;;;7.80;99.90;;;;;;5032688;28;20196;-78
2022/01/22 06:49:03;;;;;;;61.60;57.60;;;7.80;99.90;;;;;;5042401;28;20575;-78
2022/01/22 06:51:29;;;;;;;62.83;58.60;;;7.80;99.90;;;;;;5034382;28;20190;-78
2022/01/22 06:53:55;;;;;;;62.40;58.60;;;7.80;99.90;;;;;;5059528;28;20284;-78
2022/01/22 06:56:21;;;;;;;63.53;59.10;;;7.80;99.90;;;;;;5026197;28;20240;-77
2022/01/22 06:58:48;;;;;;;63.63;59.23;;;7.80;99.90;;;;;;5061499;28;20206;-79
2022/01/22 07:01:15;;;;;;;64.40;60.30;;;7.90;99.90;;;;;;5030625;28;20229;-78
2022/01/22 07:03:41;;;;;;;62.30;58.53;;;7.80;99.90;;;;;;5054588;28;20678;-78
2022/01/22 07:06:06;;;;;;;64.03;59.97;;;7.80;99.90;;;;;;5031325;28;20198;-77
2022/01/22 07:08:32;;;;;;;64.27;59.53;;;7.80;99.90;;;;;;5046823;28;20200;-78
2022/01/22 07:10:58;;;;;;;63.93;59.77;;;7.90;99.90;;;;;;5044983;28;20991;-78
2022/01/22 07:13:23;;;;;;;63.07;58.53;;;7.80;99.90;;;;;;5030789;28;20221;-77
2022/01/22 07:15:49;;;;;;;60.40;56.60;;;7.80;99.90;;;;;;5030443;28;20198;-78
2022/01/22 07:18:15;;;;;;;58.63;55.03;;;7.90;99.90;;;;;;5048663;28;20177;-78
2022/01/22 07:20:42;;;;;;;61.33;57.03;;;7.80;99.90;;;;;;5029078;28;20723;-78
2022/01/22 07:24:22;;;;;;;62.43;57.67;;;7.90;99.90;;;;;;5062615;28;20222;-77
2022/01/22 07:26:02;;;;;;;60.90;57.30;;;7.90;99.90;;;;;;5059276;28;20202;-77
2022/01/22 07:28:28;;;;;;;60.23;56.80;;;7.90;99.90;;;;;;5037247;28;20269;-76
2022/01/22 07:30:54;;;;;;;60.67;56.47;;;7.90;99.90;;;;;;5037906;28;20208;-78
2022/01/22 07:33:21;;;;;;;58.53;55.20;;;7.90;99.90;;;;;;5032227;28;20190;-77
2022/01/22 07:35:48;;;;;;;58.03;54.50;;;7.90;99.90;;;;;;5048145;28;20616;-78
2022/01/22 07:38:14;;;;;;;58.00;53.93;;;7.90;99.90;;;;;;5030583;28;20672;-78
2022/01/22 07:40:39;;;;;;;58.30;54.47;;;7.90;99.90;;;;;;5053717;28;20217;-78
2022/01/22 07:43:05;;;;;;;58.40;54.47;;;7.90;99.90;;;;;;5048753;28;20206;-77
2022/01/22 07:45:31;;;;;;;55.53;51.83;;;7.90;99.90;;;;;;5046680;28;20215;-78
2022/01/22 07:47:57;;;;;;;56.07;52.53;;;7.90;99.90;;;;;;5030073;28;20198;-79
2022/01/22 07:50:23;;;;;;;55.97;52.60;;;7.90;99.90;;;;;;5047159;28;20192;-78
2022/01/22 07:52:48;;;;;;;55.67;52.20;;;7.90;99.90;;;;;;5063362;28;20278;-78
2022/01/22 07:55:20;;;;;;;55.80;51.93;;;7.90;99.90;;;;;;5048809;28;20209;-76
2022/01/22 07:57:45;;;;;;;55.30;51.40;;;7.90;99.90;;;;;;5063322;28;20190;-77
2022/01/22 08:00:12;;;;;;;55.40;52.13;;;7.90;99.90;;;;;;5012968;28;20200;-77
2022/01/22 08:02:38;;;;;;;57.10;53.67;;;7.90;99.90;;;;;;5045022;28;20220;-78
2022/01/22 08:05:04;;;;;;;56.03;52.57;;;7.90;99.90;;;;;;5046557;28;20563;-78
2022/01/22 08:07:29;;;;;;;54.47;51.20;;;8.00;99.90;;;;;;5048757;28;21665;-78
2022/01/22 08:09:57;;;;;;;54.30;50.73;;;8.00;99.90;;;;;;5029825;28;20280;-78
2022/01/22 08:12:23;;;;;;;55.50;52.20;;;7.90;99.90;;;;;;5029346;28;20209;-78
2022/01/22 08:14:48;;;;;;;52.17;48.80;;;8.00;99.90;;;;;;5045125;28;20201;-77
2022/01/22 08:17:14;;;;;;;54.67;51.37;;;8.00;99.90;;;;;;5027776;28;20254;-78
2022/01/22 08:19:41;;;;;;;54.03;50.43;;;8.00;99.90;;;;;;5064151;28;20558;-78
2022/01/22 08:22:06;;;;;;;52.80;49.33;;;8.10;99.90;;;;;;5014286;28;20248;-78
2022/01/22 08:24:32;;;;;;;56.17;52.30;;;8.00;99.90;;;;;;5044343;28;20194;-78
2022/01/22 08:27:14;;;;;;;56.50;52.57;;;8.00;99.90;;;;;;5061703;28;20210;-79
2022/01/22 08:29:41;;;;;;;54.37;51.17;;;8.00;99.90;;;;;;5028981;28;20270;-78
2022/01/22 08:37:18;;;;;;;56.50;52.57;;;8.10;99.90;;;;;;5043934;28;20208;-79
2022/01/22 08:39:44;;;;;;;57.20;53.53;;;8.10;99.90;;;;;;5031857;28;20596;-78
2022/01/22 08:42:10;;;;;;;55.80;52.07;;;8.10;99.90;;;;;;5027760;28;20229;-78
2022/01/22 08:44:36;;;;;;;55.23;51.63;;;8.10;99.90;;;;;;5041573;28;20189;-78
2022/01/22 08:47:01;;;;;;;55.87;51.90;;;8.10;99.90;;;;;;5060568;28;20753;-78
2022/01/22 08:49:27;;;;;;;56.40;52.00;;;8.20;99.90;;;;;;5011717;28;20273;-78
2022/01/22 08:51:53;;;;;;;53.87;50.27;;;8.10;99.90;;;;;;5011762;28;20187;-77
2022/01/22 08:54:19;;;;;;;55.33;51.67;;;8.20;99.90;;;;;;5043600;28;20197;-78
2022/01/22 08:56:45;;;;;;;57.37;53.47;;;8.20;99.90;;;;;;5049272;28;20201;-77
2022/01/22 08:59:12;;;;;;;54.83;50.87;;;8.20;99.90;;;;;;5033267;28;20194;-78
2022/01/22 09:01:40;;;;;;;54.20;50.77;;;8.20;99.90;;;;;;5045466;28;20232;-77
2022/01/22 09:04:06;;;;;;;54.63;50.93;;;8.20;99.90;;;;;;5028700;28;20186;-77
2022/01/22 09:06:32;;;;;;;54.80;51.37;;;8.20;99.90;;;;;;5031899;28;20240;-78
2022/01/22 09:09:30;;;;;;;55.40;51.90;;;8.20;99.90;;;;;;5032254;28;20205;-77
2022/01/22 09:11:49;;;;;;;55.83;52.20;;;8.20;99.90;;;;;;5055160;28;20218;-79
2022/01/22 09:14:17;;;;;;;55.37;51.57;;;8.20;99.90;;;;;;5045233;28;20220;-78
2022/01/22 09:16:44;;;;;;;54.43;51.13;;;8.20;99.90;;;;;;5060443;28;20239;-78
2022/01/22 09:19:12;;;;;;;55.13;51.63;;;8.20;99.90;;;;;;5050065;28;20217;-79
2022/01/22 09:21:46;;;;;;;57.17;53.27;;;8.20;99.90;;;;;;5058092;28;20228;-78
2022/01/22 09:24:17;;;;;;;56.67;53.00;;;8.20;99.90;;;;;;5047628;28;20193;-77
2022/01/22 09:26:43;;;;;;;55.90;52.53;;;8.20;99.90;;;;;;5041357;28;20190;-79
2022/01/22 09:29:09;;;;;;;54.77;51.37;;;8.20;99.90;;;;;;5056572;28;20723;-78
2022/01/22 09:31:35;;;;;;;53.53;50.17;;;8.20;99.90;;;;;;5058489;28;20197;-78
2022/01/22 09:34:02;;;;;;;53.53;49.97;;;8.20;99.90;;;;;;5025854;28;20202;-78
2022/01/22 09:36:30;;;;;;;51.93;48.63;;;8.10;99.90;;;;;;5041837;28;20239;-78
2022/01/22 09:38:56;;;;;;;53.20;49.17;;;8.10;99.90;;;;;;5048829;28;20197;-80
2022/01/22 09:41:24;;;;;;;52.83;49.40;;;8.20;99.90;;;;;;5026054;28;20225;-77
2022/01/22 09:43:51;;;;;;;52.93;49.13;;;8.20;99.90;;;;;;5049450;28;20296;-79
2022/01/22 09:46:17;;;;;;;51.83;48.57;;;8.20;99.90;;;;;;5026729;28;20194;-79
2022/01/22 09:48:44;;;;;;;53.90;50.33;;;8.20;99.90;;;;;;5027718;28;20244;-78
2022/01/22 09:51:14;;;;;;;53.73;50.23;;;8.20;99.90;;;;;;5051172;28;20193;-78
2022/01/22 09:53:42;;;;;;;54.60;51.20;;;8.20;99.90;;;;;;5025531;28;20701;-78
2022/01/22 09:56:08;;;;;;;54.40;51.00;;;8.20;99.90;;;;;;5045890;28;20181;-79
2022/01/22 09:58:34;;;;;;;51.77;47.80;;;8.20;99.90;;;;;;5048953;28;20574;-78
2022/01/22 10:01:33;;;;;;;53.23;49.10;;;8.20;99.90;;;;;;5028697;28;20218;-77
2022/01/22 10:04:01;;;;;;;53.17;49.57;;;8.20;99.90;;;;;;5043463;28;20186;-79
2022/01/22 10:06:30;;;;;;;53.47;50.03;;;8.20;99.90;;;;;;5050205;28;20200;-78
2022/01/22 10:09:12;;;;;;;52.10;48.33;;;8.30;99.90;;;;;;5059737;28;20213;-79
2022/01/22 10:11:40;;;;;;;54.70;51.00;;;8.30;99.90;;;;;;5042742;28;20543;-79
2022/01/22 10:14:07;;;;;;;53.50;49.60;;;8.30;99.90;;;;;;5041693;28;20314;-79
2022/01/22 10:16:39;;;;;;;54.43;50.50;;;8.30;99.90;;;;;;5039485;28;20189;-79
2022/01/22 10:19:20;;;;;;;53.87;49.90;;;8.30;99.90;;;;;;5043904;28;20683;-78
2022/01/22 10:21:57;;;;;;;53.80;50.30;;;8.40;99.90;;;;;;5057945;28;20208;-79
2022/01/22 10:24:41;;;;;;;55.27;51.17;;;8.40;99.90;;;;;;5057402;28;20703;-79
2022/01/22 10:27:33;;;;;;;54.53;50.90;;;8.40;99.90;;;;;;5043773;28;20703;-78
2022/01/22 10:30:16;;;;;;;52.57;48.67;;;8.40;99.90;;;;;;5043922;28;20251;-79
2022/01/22 10:35:18;;;;;;;53.23;49.30;;;8.50;99.90;;;;;;5042450;28;20197;-79
2022/01/22 10:37:44;;;;;;;52.43;48.47;;;8.50;99.90;;;;;;5059850;28;20255;-78
2022/01/22 10:40:23;;;;;;;51.13;47.80;;;8.50;99.90;;;;;;5033270;28;20186;-79
2022/01/22 10:42:51;;;;;;;54.03;50.07;;;8.40;99.90;;;;;;5041164;28;20209;-79
2022/01/22 10:45:26;;;;;;;52.63;49.00;;;8.50;99.90;;;;;;5041042;28;20209;-78
2022/01/22 10:48:13;;;;;;;52.50;48.67;;;8.50;99.90;;;;;;5042800;28;20261;-79
2022/01/22 10:50:38;;;;;;;50.70;47.43;;;8.60;99.90;;;;;;5059415;28;20705;-81
2022/01/22 10:53:04;;;;;;;51.97;48.33;;;8.50;99.90;;;;;;5064932;28;20334;-79
2022/01/22 10:55:30;;;;;;;51.17;47.37;;;8.50;99.90;;;;;;5060036;28;20704;-79
2022/01/22 10:58:09;;;;;;;51.03;47.37;;;8.60;99.90;;;;;;5029315;28;20228;-77
2022/01/22 11:00:36;;;;;;;52.10;48.20;;;8.50;99.90;;;;;;5041745;28;20636;-78
2022/01/22 11:03:21;;;;;;;50.93;47.20;;;8.50;99.90;;;;;;5043787;28;20674;-79
2022/01/22 11:05:48;;;;;;;49.80;46.53;;;8.50;99.90;;;;;;5059622;28;20591;-79
2022/01/22 11:08:14;;;;;;;50.10;46.80;;;8.60;99.90;;;;;;5028274;28;20197;-79
2022/01/22 11:10:42;;;;;;;50.97;47.63;;;8.60;99.90;;;;;;5041938;28;20709;-79
2022/01/22 11:13:08;;;;;;;49.97;46.73;;;8.60;99.90;;;;;;5043032;28;20256;-79
2022/01/22 11:15:35;;;;;;;49.27;45.83;;;8.60;99.90;;;;;;5040178;28;20182;-79
2022/01/22 11:18:02;;;;;;;50.30;45.97;;;8.50;99.90;;;;;;5059078;28;20238;-79
2022/01/22 11:20:29;;;;;;;48.67;44.83;;;8.50;99.90;;;;;;5048953;28;20380;-79
2022/01/22 11:22:56;;;;;;;47.17;43.60;;;8.50;99.90;;;;;;5045841;28;20907;-78
2022/01/22 11:25:24;;;;;;;46.53;43.17;;;8.50;99.90;;;;;;5043562;28;20237;-78
2022/01/22 11:27:49;;;;;;;45.27;41.97;;;8.40;99.90;;;;;;5042514;28;20221;-79
2022/01/22 11:30:17;;;;;;;46.10;42.00;;;8.40;99.90;;;;;;5024096;28;20210;-79
2022/01/22 11:32:52;;;;;;;45.03;41.73;;;8.40;99.90;;;;;;5028357;28;20190;-79
2022/01/22 11:35:28;;;;;;;45.80;42.43;;;8.50;99.90;;;;;;5059772;28;20196;-78
2022/01/22 11:38:06;;;;;;;46.73;42.73;;;8.50;99.90;;;;;;5051773;28;20639;-80
2022/01/22 11:40:33;;;;;;;44.70;41.23;;;8.50;99.90;;;;;;5043073;28;20201;-79
2022/01/22 11:43:13;;;;;;;45.93;42.00;;;8.50;99.90;;;;;;5026954;28;20551;-79
2022/01/22 11:45:52;;;;;;;45.37;42.07;;;8.50;99.90;;;;;;5062196;28;20196;-79
2022/01/22 11:48:32;;;;;;;44.43;41.53;;;8.50;99.90;;;;;;5062958;28;20193;-79
2022/01/22 11:51:24;;;;;;;45.17;41.70;;;8.50;99.90;;;;;;5045816;28;20675;-79
2022/01/22 11:53:55;;;;;;;44.13;41.13;;;8.50;99.90;;;;;;5064355;28;20562;-78
2022/01/22 11:56:25;;;;;;;45.33;41.83;;;8.50;99.90;;;;;;5051163;28;20189;-79
2022/01/22 11:58:58;;;;;;;46.70;42.40;;;8.50;99.90;;;;;;5045390;28;20225;-78
2022/01/22 12:01:50;;;;;;;45.17;41.67;;;8.60;99.90;;;;;;5045074;28;20275;-78
2022/01/22 12:04:26;;;;;;;44.97;41.57;;;8.60;99.90;;;;;;5061550;28;20194;-79
2022/01/22 12:07:04;;;;;;;44.40;41.10;;;8.50;99.90;;;;;;5043388;28;20189;-78
2022/01/22 12:09:32;;;;;;;45.93;42.03;;;8.50;99.90;;;;;;5043629;28;20734;-78
2022/01/22 12:15:03;;;;;;;45.57;42.23;;;8.50;99.90;;;;;;5049836;28;20212;-79
2022/01/22 12:17:51;;;;;;;46.13;42.63;;;8.40;99.90;;;;;;5060514;28;20772;-78
2022/01/22 12:23:18;;;;;;;46.23;42.50;;;8.40;99.90;;;;;;5062303;28;20276;-77
2022/01/22 12:25:43;;;;;;;48.53;44.40;;;8.40;99.90;;;;;;5046269;28;20879;-78
2022/01/22 12:28:13;;;;;;;47.90;43.67;;;8.40;99.90;;;;;;5063133;28;20197;-79
2022/01/22 12:30:49;;;;;;;46.47;42.90;;;8.40;99.90;;;;;;5060483;28;20178;-79
2022/01/22 12:33:35;;;;;;;47.87;43.93;;;8.30;99.90;;;;;;5063316;28;20204;-79
2022/01/22 12:36:06;;;;;;;47.27;43.43;;;8.20;99.90;;;;;;5046305;28;20963;-79
2022/01/22 12:38:48;;;;;;;46.73;42.83;;;8.20;99.90;;;;;;5063070;28;20331;-77
2022/01/22 12:44:06;;;;;;;48.57;45.07;;;8.20;99.90;;;;;;5062150;28;20224;-78
2022/01/22 12:46:33;;;;;;;48.07;44.43;;;8.20;99.90;;;;;;5061864;28;20186;-79
2022/01/22 12:49:02;;;;;;;45.70;42.47;;;8.20;99.90;;;;;;5043371;28;20505;-78
2022/01/22 12:51:28;;;;;;;47.63;43.33;;;8.20;99.90;;;;;;5050327;28;20268;-79
2022/01/22 12:53:54;;;;;;;45.73;42.17;;;8.20;99.90;;;;;;5044570;28;20189;-80
2022/01/22 12:59:01;;;;;;;44.53;41.07;;;8.10;99.90;;;;;;5062495;28;20578;-78
2022/01/22 13:01:29;;;;;;;44.93;41.17;;;8.10;99.90;;;;;;5028519;28;20381;-79
2022/01/22 13:03:56;;;;;;;43.37;40.17;;;8.10;99.90;;;;;;5046650;28;21176;-78
2022/01/22 13:06:26;;;;;;;42.20;39.23;;;8.00;99.90;;;;;;5035720;28;20190;-78
2022/01/22 13:08:57;;;;;;;41.67;38.40;;;8.00;99.90;;;;;;5060576;28;20201;-79
2022/01/22 13:11:28;;;;;;;41.07;37.77;;;8.00;99.90;;;;;;5042965;28;20190;-79
2022/01/22 13:13:54;;;;;;;40.87;37.70;;;8.00;99.90;;;;;;5052014;28;20193;-78
2022/01/22 13:16:21;;;;;;;41.70;37.83;;;8.00;99.90;;;;;;5045232;28;20208;-79
2022/01/22 13:18:58;;;;;;;43.10;39.53;;;8.00;99.90;;;;;;5029085;28;20209;-79
2022/01/22 13:21:32;;;;;;;42.07;38.77;;;8.00;99.90;;;;;;5062005;28;20218;-77
2022/01/22 13:24:04;;;;;;;43.80;40.30;;;8.10;99.90;;;;;;5033411;28;20309;-79
2022/01/22 13:26:43;;;;;;;40.83;37.47;;;8.10;99.90;;;;;;5044582;28;20194;-79
2022/01/22 13:29:21;;;;;;;41.87;38.47;;;8.20;99.90;;;;;;5050869;28;20208;-78
2022/01/22 13:32:02;;;;;;;41.10;37.70;;;8.20;99.90;;;;;;5042664;28;20290;-79
2022/01/22 13:34:46;;;;;;;39.47;36.47;;;8.20;99.90;;;;;;5059291;28;20185;-78
2022/01/22 13:47:42;;;;;;;37.60;34.33;;;8.00;99.90;;;;;;5049103;28;20194;-77
2022/01/22 13:48:07;;;;;;;37.90;34.50;;;7.90;99.90;;;;;;5046039;28;20217;-77
2022/01/22 13:50:33;;;;;;;38.77;35.37;;;7.90;99.90;;;;;;5034541;28;20212;-79
2022/01/22 13:52:59;;;;;;;38.03;34.47;;;7.90;99.90;;;;;;5010869;28;20233;-77
2022/01/22 13:55:26;;;;;;;38.10;34.87;;;7.90;99.90;;;;;;5027855;28;20196;-79
2022/01/22 13:57:52;;;;;;;38.10;34.73;;;7.90;99.90;;;;;;5034303;28;20317;-78
2022/01/22 14:00:21;;;;;;;37.70;34.30;;;7.80;99.90;;;;;;5026962;28;20937;-78
2022/01/22 14:03:08;;;;;;;40.20;36.53;;;7.80;99.90;;;;;;5026777;28;20223;-78
2022/01/22 14:05:34;;;;;;;40.13;36.70;;;7.80;99.90;;;;;;5045922;28;20194;-79
2022/01/22 14:08:11;;;;;;;41.10;37.13;;;7.90;99.90;;;;;;5043243;28;20209;-80
2022/01/22 14:10:36;;;;;;;39.33;36.07;;;7.90;99.90;;;;;;5058639;28;20251;-78
2022/01/22 14:13:10;;;;;;;39.50;36.37;;;7.90;99.90;;;;;;5012872;28;20209;-78
2022/01/22 14:15:41;;;;;;;40.07;36.50;;;7.90;99.90;;;;;;5034215;28;20197;-79
2022/01/22 14:21:06;;;;;;;40.93;37.20;;;7.90;99.90;;;;;;5061136;28;20259;-79
2022/01/22 14:23:33;;;;;;;40.90;37.07;;;7.90;99.90;;;;;;5042932;28;20236;-78
2022/01/22 14:26:15;;;;;;;39.80;36.00;;;7.90;99.90;;;;;;5044816;28;20189;-79
2022/01/22 14:29:10;;;;;;;39.73;36.37;;;7.80;99.90;;;;;;5046165;28;20201;-78
2022/01/22 14:31:47;;;;;;;40.43;36.83;;;7.80;99.90;;;;;;5055775;28;20722;-78
2022/01/22 14:34:34;;;;;;;42.47;38.53;;;7.80;99.90;;;;;;5060764;28;20683;-79